createdAt,value
2023-04-19T00:00:31.227Z,502.00
2023-04-19T00:01:31.522Z,502.00
2023-04-19T00:02:32.031Z,503.00
2023-04-19T00:03:31.474Z,501.00
2023-04-19T00:04:31.027Z,501.00
2023-04-19T00:05:31.793Z,503.00
2023-04-19T00:06:30.727Z,504.00
2023-04-19T00:07:31.558Z,505.00
2023-04-19T00:08:31.973Z,504.00
2023-04-19T00:09:31.471Z,504.00
2023-04-19T00:10:31.532Z,504.00
2023-04-19T00:11:30.671Z,503.00
2023-04-19T00:12:31.401Z,504.00
2023-04-19T00:13:32.007Z,505.00
2023-04-19T00:14:31.214Z,505.00
2023-04-19T00:15:30.702Z,506.00
2023-04-19T00:16:31.039Z,507.00
2023-04-19T00:17:32.080Z,506.00
2023-04-19T00:18:31.123Z,504.00
2023-04-19T00:19:31.146Z,504.00
2023-04-19T00:20:30.729Z,503.00
2023-04-19T00:21:31.465Z,499.00
2023-04-19T00:22:30.640Z,498.00
2023-04-19T00:23:29.692Z,498.00
2023-04-19T00:24:31.777Z,499.00
2023-04-19T00:25:31.473Z,502.00
2023-04-19T00:26:32.093Z,503.00
2023-04-19T00:27:31.925Z,507.00
2023-04-19T00:28:32.937Z,508.00
2023-04-19T00:29:32.961Z,508.00
2023-04-19T00:30:33.026Z,506.00
2023-04-19T00:31:32.987Z,506.00
2023-04-19T00:32:35.339Z,506.00
2023-04-19T00:33:33.288Z,504.00
2023-04-19T00:34:31.903Z,507.00
2023-04-19T00:35:31.550Z,510.00
2023-04-19T00:36:32.986Z,508.00
2023-04-19T00:37:31.677Z,506.00
2023-04-19T00:38:32.992Z,505.00
2023-04-19T00:39:31.570Z,506.00
2023-04-19T00:40:31.578Z,507.00
2023-04-19T00:41:32.095Z,507.00
2023-04-19T00:42:32.324Z,508.00
2023-04-19T00:43:32.829Z,507.00
2023-04-19T00:44:31.907Z,503.00
2023-04-19T00:45:32.440Z,504.00
2023-04-19T00:46:33.334Z,503.00
2023-04-19T00:47:32.776Z,503.00
2023-04-19T00:48:32.140Z,505.00
2023-04-19T00:49:32.572Z,503.00
2023-04-19T00:50:32.369Z,503.00
2023-04-19T00:51:31.951Z,505.00
2023-04-19T00:52:32.165Z,505.00
2023-04-19T00:53:32.011Z,507.00
2023-04-19T00:54:33.202Z,492.00
2023-04-19T00:55:33.318Z,499.00
2023-04-19T00:56:32.606Z,508.00
2023-04-19T00:57:32.004Z,505.00
2023-04-19T00:58:33.477Z,495.00
2023-04-19T00:59:32.333Z,505.00
2023-04-19T01:00:32.840Z,500.00
2023-04-19T01:01:33.219Z,501.00
2023-04-19T01:02:33.697Z,499.00
2023-04-19T01:03:33.340Z,497.00
2023-04-19T01:04:32.693Z,498.00
2023-04-19T01:05:33.484Z,499.00
2023-04-19T01:06:33.394Z,500.00
2023-04-19T01:07:34.014Z,500.00
2023-04-19T01:08:32.891Z,501.00
2023-04-19T01:09:32.490Z,502.00
2023-04-19T01:10:32.675Z,501.00
2023-04-19T01:11:34.026Z,500.00
2023-04-19T01:12:37.737Z,501.00
2023-04-19T01:13:35.046Z,501.00
2023-04-19T01:14:33.839Z,503.00
2023-04-19T01:15:34.880Z,503.00
2023-04-19T01:16:32.771Z,506.00
2023-04-19T01:17:35.842Z,502.00
2023-04-19T01:18:33.567Z,506.00
2023-04-19T01:19:35.961Z,510.00
2023-04-19T01:20:36.551Z,512.00
2023-04-19T01:21:34.138Z,512.00
2023-04-19T01:22:34.337Z,511.00
2023-04-19T01:23:34.509Z,511.00
2023-04-19T01:24:34.746Z,510.00
2023-04-19T01:25:40.689Z,511.00
2023-04-19T01:26:34.762Z,509.00
2023-04-19T01:27:36.495Z,508.00
2023-04-19T01:28:37.491Z,509.00
2023-04-19T01:29:32.829Z,509.00
2023-04-19T01:30:33.241Z,508.00
2023-04-19T01:31:33.585Z,510.00
2023-04-19T01:32:34.172Z,507.00
2023-04-19T01:33:32.652Z,510.00
2023-04-19T01:34:33.268Z,513.00
2023-04-19T01:35:32.765Z,515.00
2023-04-19T01:36:33.792Z,513.00
2023-04-19T01:37:33.693Z,514.00
2023-04-19T01:38:33.906Z,514.00
2023-04-19T01:39:32.783Z,511.00
2023-04-19T01:40:33.717Z,511.00
2023-04-19T01:41:33.829Z,510.00
2023-04-19T01:42:34.147Z,510.00
2023-04-19T01:43:34.659Z,512.00
2023-04-19T01:44:33.025Z,514.00
2023-04-19T01:45:33.541Z,514.00
2023-04-19T01:46:33.408Z,514.00
2023-04-19T01:47:34.620Z,513.00
2023-04-19T01:48:34.083Z,513.00
2023-04-19T01:49:34.079Z,513.00
2023-04-19T01:50:33.543Z,509.00
2023-04-19T01:51:34.000Z,506.00
2023-04-19T01:52:33.196Z,509.00
2023-04-19T01:53:34.621Z,509.00
2023-04-19T01:54:33.299Z,510.00
2023-04-19T01:55:33.402Z,509.00
2023-04-19T01:56:33.618Z,508.00
2023-04-19T01:57:34.039Z,508.00
2023-04-19T01:58:33.219Z,509.00
2023-04-19T01:59:33.023Z,513.00
2023-04-19T02:00:33.583Z,516.00
2023-04-19T02:01:34.883Z,517.00
2023-04-19T02:02:33.318Z,515.00
2023-04-19T02:03:33.270Z,515.00
2023-04-19T02:04:33.361Z,516.00
2023-04-19T02:05:34.601Z,515.00
2023-04-19T02:06:33.270Z,513.00
2023-04-19T02:07:33.691Z,511.00
2023-04-19T02:08:35.331Z,512.00
2023-04-19T02:09:34.499Z,511.00
2023-04-19T02:10:33.407Z,510.00
2023-04-19T02:11:35.257Z,510.00
2023-04-19T02:12:34.062Z,511.00
2023-04-19T02:13:34.244Z,512.00
2023-04-19T02:14:33.942Z,514.00
2023-04-19T02:15:34.639Z,516.00
2023-04-19T02:16:36.489Z,517.00
2023-04-19T02:17:33.851Z,517.00
2023-04-19T02:18:33.564Z,512.00
2023-04-19T02:19:34.113Z,511.00
2023-04-19T02:20:34.110Z,509.00
2023-04-19T02:21:34.611Z,508.00
2023-04-19T02:22:34.066Z,513.00
2023-04-19T02:23:34.108Z,512.00
2023-04-19T02:24:35.251Z,515.00
2023-04-19T02:25:34.223Z,516.00
2023-04-19T02:26:34.227Z,516.00
2023-04-19T02:27:33.044Z,515.00
2023-04-19T02:28:34.007Z,514.00
2023-04-19T02:29:33.534Z,512.00
2023-04-19T02:30:34.482Z,508.00
2023-04-19T02:31:33.391Z,506.00
2023-04-19T02:32:34.485Z,505.00
2023-04-19T02:33:33.868Z,506.00
2023-04-19T02:34:33.136Z,505.00
2023-04-19T02:35:36.428Z,509.00
2023-04-19T02:36:34.900Z,510.00
2023-04-19T02:37:33.692Z,509.00
2023-04-19T02:38:33.623Z,512.00
2023-04-19T02:39:32.974Z,513.00
2023-04-19T02:40:33.608Z,516.00
2023-04-19T02:41:33.158Z,516.00
2023-04-19T02:42:33.414Z,517.00
2023-04-19T02:43:36.301Z,517.00
2023-04-19T02:44:34.237Z,518.00
2023-04-19T02:45:35.047Z,522.00
2023-04-19T02:46:36.909Z,524.00
2023-04-19T02:47:34.536Z,522.00
2023-04-19T02:48:33.546Z,523.00
2023-04-19T02:49:33.551Z,531.00
2023-04-19T02:50:36.325Z,536.00
2023-04-19T02:51:37.045Z,543.00
2023-04-19T02:52:34.512Z,542.00
2023-04-19T02:53:33.518Z,540.00
2023-04-19T02:54:32.571Z,535.00
2023-04-19T02:55:33.178Z,533.00
2023-04-19T02:56:34.334Z,528.00
2023-04-19T02:57:34.396Z,527.00
2023-04-19T02:58:32.635Z,526.00
2023-04-19T02:59:33.527Z,526.00
2023-04-19T03:00:33.520Z,524.00
2023-04-19T03:01:34.184Z,527.00
2023-04-19T03:02:33.922Z,528.00
2023-04-19T03:03:34.712Z,526.00
2023-04-19T03:04:33.626Z,532.00
2023-04-19T03:05:33.335Z,537.00
2023-04-19T03:06:33.556Z,540.00
2023-04-19T03:07:34.398Z,537.00
2023-04-19T03:08:33.674Z,535.00
2023-04-19T03:09:34.744Z,532.00
2023-04-19T03:10:33.709Z,528.00
2023-04-19T03:11:34.014Z,524.00
2023-04-19T03:12:34.023Z,522.00
2023-04-19T03:13:33.123Z,520.00
2023-04-19T03:14:32.392Z,518.00
2023-04-19T03:15:34.671Z,518.00
2023-04-19T03:16:33.844Z,517.00
2023-04-19T03:17:34.160Z,517.00
2023-04-19T03:18:33.945Z,522.00
2023-04-19T03:19:34.361Z,524.00
2023-04-19T03:20:34.076Z,523.00
2023-04-19T03:21:33.761Z,523.00
2023-04-19T03:22:33.554Z,520.00
2023-04-19T03:23:35.004Z,520.00
2023-04-19T03:24:37.543Z,519.00
2023-04-19T03:25:34.717Z,521.00
2023-04-19T03:26:33.883Z,520.00
2023-04-19T03:27:33.996Z,520.00
2023-04-19T03:28:34.634Z,521.00
2023-04-19T03:29:34.575Z,520.00
2023-04-19T03:30:33.811Z,520.00
2023-04-19T03:31:33.699Z,518.00
2023-04-19T03:32:33.519Z,519.00
2023-04-19T03:33:34.448Z,518.00
2023-04-19T03:34:33.480Z,520.00
2023-04-19T03:35:34.065Z,521.00
2023-04-19T03:36:35.026Z,521.00
2023-04-19T03:37:33.869Z,519.00
2023-04-19T03:38:35.004Z,524.00
2023-04-19T03:39:33.552Z,526.00
2023-04-19T03:40:34.895Z,526.00
2023-04-19T03:41:34.182Z,526.00
2023-04-19T03:42:34.396Z,528.00
2023-04-19T03:43:35.019Z,530.00
2023-04-19T03:44:33.717Z,525.00
2023-04-19T03:45:35.058Z,522.00
2023-04-19T03:46:34.353Z,520.00
2023-04-19T03:47:34.454Z,520.00
2023-04-19T03:48:34.434Z,522.00
2023-04-19T03:49:34.525Z,519.00
2023-04-19T03:50:34.582Z,520.00
2023-04-19T03:51:36.670Z,518.00
2023-04-19T03:52:34.018Z,518.00
2023-04-19T03:53:33.563Z,515.00
2023-04-19T03:54:34.375Z,515.00
2023-04-19T03:55:34.148Z,518.00
2023-04-19T03:56:34.483Z,519.00
2023-04-19T03:57:34.299Z,516.00
2023-04-19T03:58:33.482Z,516.00
2023-04-19T03:59:34.407Z,519.00
2023-04-19T04:00:34.186Z,522.00
2023-04-19T04:01:33.725Z,525.00
2023-04-19T04:02:34.408Z,526.00
2023-04-19T04:03:35.296Z,524.00
2023-04-19T04:04:33.435Z,522.00
2023-04-19T04:05:34.798Z,520.00
2023-04-19T04:06:33.849Z,520.00
2023-04-19T04:07:33.869Z,522.00
2023-04-19T04:08:34.064Z,520.00
2023-04-19T04:09:33.461Z,518.00
2023-04-19T04:10:34.910Z,516.00
2023-04-19T04:11:34.786Z,517.00
2023-04-19T04:12:34.179Z,520.00
2023-04-19T04:13:33.818Z,521.00
2023-04-19T04:14:33.191Z,524.00
2023-04-19T04:15:34.087Z,523.00
2023-04-19T04:16:34.536Z,519.00
2023-04-19T04:17:34.120Z,514.00
2023-04-19T04:18:34.652Z,516.00
2023-04-19T04:19:33.712Z,516.00
2023-04-19T04:20:33.647Z,516.00
2023-04-19T04:21:33.853Z,518.00
2023-04-19T04:22:33.661Z,521.00
2023-04-19T04:23:33.790Z,526.00
2023-04-19T04:24:34.046Z,529.00
2023-04-19T04:25:33.569Z,531.00
2023-04-19T04:26:34.611Z,533.00
2023-04-19T04:27:34.177Z,533.00
2023-04-19T04:28:35.134Z,536.00
2023-04-19T04:29:34.298Z,537.00
2023-04-19T04:30:33.616Z,533.00
2023-04-19T04:31:33.890Z,532.00
2023-04-19T04:32:33.470Z,531.00
2023-04-19T04:33:34.561Z,530.00
2023-04-19T04:34:34.131Z,533.00
2023-04-19T04:35:34.163Z,535.00
2023-04-19T04:36:36.071Z,537.00
2023-04-19T04:37:33.876Z,544.00
2023-04-19T04:38:33.987Z,547.00
2023-04-19T04:39:34.574Z,547.00
2023-04-19T04:40:33.177Z,548.00
2023-04-19T04:41:33.980Z,550.00
2023-04-19T04:42:35.318Z,548.00
2023-04-19T04:43:38.205Z,544.00
2023-04-19T04:44:34.845Z,542.00
2023-04-19T04:45:34.048Z,541.00
2023-04-19T04:46:34.252Z,534.00
2023-04-19T04:47:34.939Z,530.00
2023-04-19T04:48:34.568Z,525.00
2023-04-19T04:49:33.958Z,524.00
2023-04-19T04:50:34.658Z,528.00
2023-04-19T04:51:34.586Z,531.00
2023-04-19T04:52:33.959Z,531.00
2023-04-19T04:53:34.304Z,533.00
2023-04-19T04:54:34.282Z,533.00
2023-04-19T04:55:34.618Z,532.00
2023-04-19T04:56:34.900Z,531.00
2023-04-19T04:57:35.113Z,536.00
2023-04-19T04:58:35.467Z,537.00
2023-04-19T04:59:34.922Z,535.00
2023-04-19T05:00:36.095Z,537.00
2023-04-19T05:01:35.748Z,534.00
2023-04-19T05:02:35.024Z,532.00
2023-04-19T05:03:36.650Z,531.00
2023-04-19T05:04:36.640Z,529.00
2023-04-19T05:05:35.586Z,529.00
2023-04-19T05:06:36.497Z,526.00
2023-04-19T05:07:38.146Z,523.00
2023-04-19T05:08:34.738Z,523.00
2023-04-19T05:09:38.260Z,522.00
2023-04-19T05:10:34.780Z,518.00
2023-04-19T05:11:35.953Z,518.00
2023-04-19T05:12:35.922Z,518.00
2023-04-19T05:13:36.786Z,517.00
2023-04-19T05:14:35.218Z,518.00
2023-04-19T05:15:34.757Z,520.00
2023-04-19T05:16:38.061Z,523.00
2023-04-19T05:17:35.572Z,523.00
2023-04-19T05:18:36.992Z,521.00
2023-04-19T05:19:34.846Z,521.00
2023-04-19T05:20:35.407Z,521.00
2023-04-19T05:21:38.141Z,518.00
2023-04-19T05:22:37.596Z,518.00
2023-04-19T05:25:58.793Z,502.00
2023-04-19T05:36:49.493Z,513.00
2023-04-19T07:27:33.623Z,506.00
2023-04-19T07:31:13.481Z,505.00
2023-04-19T07:54:04.026Z,500.00
2023-04-19T07:55:05.005Z,498.00
2023-04-19T07:56:04.762Z,497.00
2023-04-19T07:57:04.765Z,500.00
2023-04-19T07:58:04.946Z,501.00
2023-04-19T07:59:09.058Z,498.00
2023-04-19T08:00:04.803Z,496.00
2023-04-19T08:01:04.802Z,493.00
2023-04-19T08:02:04.811Z,495.00
2023-04-19T08:03:04.939Z,494.00
2023-04-19T08:04:08.243Z,497.00
2023-04-19T08:05:04.927Z,495.00
2023-04-19T08:06:05.476Z,499.00
2023-04-19T08:07:05.032Z,499.00
2023-04-19T08:08:04.700Z,499.00
2023-04-19T08:09:04.685Z,501.00
2023-04-19T08:10:04.743Z,501.00
2023-04-19T08:11:04.657Z,503.00
2023-04-19T08:12:04.675Z,498.00
2023-04-19T08:13:06.331Z,501.00
2023-04-19T08:14:12.040Z,501.00
2023-04-19T08:15:11.210Z,502.00
2023-04-19T08:17:19.455Z,506.00
2023-04-19T08:18:04.799Z,505.00
2023-04-19T08:19:04.575Z,505.00
2023-04-19T08:20:04.553Z,503.00
2023-04-19T08:21:05.009Z,504.00
2023-04-19T08:22:04.516Z,506.00
2023-04-19T08:23:13.988Z,505.00
2023-04-19T08:24:04.465Z,505.00
2023-04-19T08:25:04.439Z,503.00
2023-04-19T08:26:04.476Z,502.00
2023-04-19T08:27:04.390Z,503.00
2023-04-19T08:28:04.376Z,501.00
2023-04-19T08:29:04.342Z,500.00
2023-04-19T08:30:05.216Z,495.00
2023-04-19T08:31:04.233Z,494.00
2023-04-19T08:32:04.251Z,496.00
2023-04-19T08:33:05.479Z,494.00
2023-04-19T08:34:11.496Z,497.00
2023-04-19T08:35:04.458Z,498.00
2023-04-19T08:36:04.458Z,496.00
2023-04-19T08:37:05.075Z,495.00
2023-04-19T08:38:04.413Z,496.00
2023-04-19T08:39:29.185Z,496.00
2023-04-19T08:40:03.843Z,497.00
2023-04-19T08:41:03.958Z,495.00
2023-04-19T08:42:08.696Z,496.00
2023-04-19T08:43:03.998Z,494.00
2023-04-19T08:44:03.638Z,492.00
2023-04-19T08:45:26.166Z,492.00
2023-04-19T08:46:03.514Z,489.00
2023-04-19T08:47:03.452Z,489.00
2023-04-19T08:48:04.550Z,490.00
2023-04-19T08:49:03.355Z,486.00
2023-04-19T08:51:05.614Z,492.00
2023-04-19T08:52:03.208Z,493.00
2023-04-19T08:53:16.148Z,492.00
2023-04-19T08:54:03.095Z,494.00
2023-04-19T08:55:03.478Z,493.00
2023-04-19T08:56:10.508Z,497.00
2023-04-19T08:57:02.996Z,498.00
2023-04-19T08:58:04.167Z,494.00
2023-04-19T08:59:15.790Z,494.00
2023-04-19T09:00:03.041Z,494.00
2023-04-19T09:01:02.850Z,494.00
2023-04-19T09:02:02.844Z,472.00
2023-04-19T09:03:03.028Z,499.00
2023-04-19T09:04:16.179Z,499.00
2023-04-19T09:05:02.829Z,498.00
2023-04-19T09:06:03.139Z,497.00
2023-04-19T09:07:02.514Z,496.00
2023-04-19T09:08:02.475Z,492.00
2023-04-19T09:09:02.404Z,495.00
2023-04-19T09:10:03.243Z,493.00
2023-04-19T09:11:02.288Z,495.00
2023-04-19T09:12:02.221Z,498.00
2023-04-19T09:13:02.502Z,498.00
2023-04-19T09:14:02.127Z,495.00
2023-04-19T09:15:02.959Z,498.00
2023-04-19T09:16:02.016Z,495.00
2023-04-19T09:17:01.911Z,493.00
2023-04-19T09:18:01.931Z,498.00
2023-04-19T09:19:15.280Z,486.00
2023-04-19T09:20:01.773Z,495.00
2023-04-19T09:21:01.898Z,473.00
2023-04-19T09:22:01.635Z,486.00
2023-04-19T09:23:01.607Z,492.00
2023-04-19T09:24:03.121Z,496.00
2023-04-19T09:26:22.258Z,502.00
2023-04-19T09:27:01.322Z,498.00
2023-04-19T09:28:01.528Z,497.00
2023-04-19T09:29:01.196Z,498.00
2023-04-19T09:30:01.850Z,499.00
2023-04-19T09:31:15.127Z,499.00
2023-04-19T09:32:01.045Z,494.00
2023-04-19T09:33:01.153Z,494.00
2023-04-19T09:34:00.853Z,489.00
2023-04-19T09:35:00.772Z,475.00
2023-04-19T09:36:00.984Z,496.00
2023-04-19T09:37:09.040Z,481.00
2023-04-19T09:38:05.359Z,496.00
2023-04-19T09:39:00.648Z,497.00
2023-04-19T09:40:00.637Z,492.00
2023-04-19T09:41:00.994Z,487.00
2023-04-19T09:42:00.630Z,490.00
2023-04-19T09:43:15.000Z,495.00
2023-04-19T09:44:15.574Z,500.00
2023-04-19T09:45:21.459Z,496.00
2023-04-19T09:46:01.008Z,492.00
2023-04-19T09:47:00.565Z,490.00
2023-04-19T09:48:00.567Z,496.00
2023-04-19T09:49:04.026Z,499.00
2023-04-19T09:50:00.746Z,496.00
2023-04-19T09:51:03.733Z,496.00
2023-04-19T09:52:00.457Z,493.00
2023-04-19T09:53:07.831Z,494.00
2023-04-19T09:54:00.408Z,495.00
2023-04-19T09:55:01.037Z,501.00
2023-04-19T09:56:02.584Z,494.00
2023-04-19T09:57:01.556Z,499.00
2023-04-19T09:58:00.315Z,510.00
2023-04-19T09:59:08.780Z,506.00
2023-04-19T10:00:00.340Z,490.00
2023-04-19T10:01:13.411Z,501.00
2023-04-19T10:02:00.496Z,493.00
2023-04-19T10:03:00.392Z,498.00
2023-04-19T10:04:13.692Z,488.00
2023-04-19T10:05:19.053Z,498.00
2023-04-19T10:06:04.345Z,508.00
2023-04-19T10:08:00.594Z,503.00
2023-04-19T10:09:00.298Z,505.00
2023-04-19T10:10:59.480Z,504.00
2023-04-19T10:12:07.868Z,501.00
2023-04-19T10:13:18.116Z,505.00
2023-04-19T10:14:00.667Z,511.00
2023-04-19T10:15:00.273Z,503.00
2023-04-19T10:16:11.677Z,504.00
2023-04-19T10:17:00.325Z,510.00
2023-04-19T10:18:00.351Z,507.00
2023-04-19T10:19:00.233Z,505.00
2023-04-19T10:20:00.476Z,504.00
2023-04-19T10:21:00.562Z,507.00
2023-04-19T10:22:00.228Z,502.00
2023-04-19T10:23:00.261Z,504.00
2023-04-19T10:24:00.270Z,464.00
2023-04-19T10:25:00.268Z,498.00
2023-04-19T10:26:00.503Z,501.00
2023-04-19T10:27:00.287Z,499.00
2023-04-19T10:28:00.291Z,503.00
2023-04-19T10:29:00.295Z,504.00
2023-04-19T10:30:00.491Z,504.00
2023-04-19T10:31:00.304Z,498.00
2023-04-19T10:32:00.363Z,491.00
2023-04-19T10:33:00.363Z,499.00
2023-04-19T10:34:00.374Z,501.00
2023-04-19T10:35:00.499Z,499.00
2023-04-19T10:36:00.344Z,496.00
2023-04-19T10:37:00.350Z,501.00
2023-04-19T10:38:00.354Z,497.00
2023-04-19T10:39:00.386Z,526.00
2023-04-19T10:40:00.401Z,506.00
2023-04-19T10:41:00.390Z,503.00
2023-04-19T10:42:00.398Z,513.00
2023-04-19T10:43:00.399Z,500.00
2023-04-19T10:44:00.418Z,496.00
2023-04-19T10:45:00.418Z,500.00
2023-04-19T10:46:00.530Z,504.00
2023-04-19T10:47:00.461Z,490.00
2023-04-19T10:48:00.453Z,496.00
2023-04-19T10:49:00.421Z,497.00
2023-04-19T10:50:00.511Z,503.00
2023-04-19T10:51:00.442Z,505.00
2023-04-19T10:52:00.488Z,505.00
2023-04-19T10:53:00.456Z,504.00
2023-04-19T10:54:00.542Z,495.00
2023-04-19T10:55:00.545Z,502.00
2023-04-19T10:56:00.989Z,504.00
2023-04-19T10:57:00.712Z,505.00
2023-04-19T10:58:00.684Z,501.00
2023-04-19T10:59:00.742Z,504.00
2023-04-19T11:00:00.798Z,505.00
2023-04-19T11:01:01.026Z,505.00
2023-04-19T11:02:01.435Z,502.00
2023-04-19T11:03:01.193Z,506.00
2023-04-19T11:04:01.247Z,509.00
2023-04-19T11:05:01.734Z,494.00
2023-04-19T11:06:01.519Z,510.00
2023-04-19T11:07:01.224Z,505.00
2023-04-19T11:08:01.279Z,498.00
2023-04-19T11:09:01.310Z,505.00
2023-04-19T11:10:01.348Z,502.00
2023-04-19T11:11:01.348Z,504.00
2023-04-19T11:12:01.361Z,505.00
2023-04-19T11:13:01.445Z,508.00
2023-04-19T11:14:05.773Z,506.00
2023-04-19T11:15:01.484Z,492.00
2023-04-19T11:16:01.677Z,503.00
2023-04-19T11:17:01.608Z,500.00
2023-04-19T11:18:12.060Z,503.00
2023-04-19T11:19:01.557Z,493.00
2023-04-19T11:20:01.526Z,489.00
2023-04-19T11:21:01.514Z,496.00
2023-04-19T11:22:01.555Z,498.00
2023-04-19T11:23:01.580Z,500.00
2023-04-19T11:24:01.539Z,500.00
2023-04-19T11:25:01.622Z,501.00
2023-04-19T11:26:01.561Z,503.00
2023-04-19T11:27:01.521Z,500.00
2023-04-19T11:28:01.617Z,507.00
2023-04-19T11:29:01.522Z,501.00
2023-04-19T11:30:01.556Z,504.00
2023-04-19T11:31:01.561Z,507.00
2023-04-19T11:32:01.997Z,505.00
2023-04-19T11:33:01.630Z,504.00
2023-04-19T11:34:01.522Z,492.00
2023-04-19T11:35:01.994Z,501.00
2023-04-19T11:36:01.528Z,504.00
2023-04-19T11:37:01.532Z,503.00
2023-04-19T11:38:01.795Z,505.00
2023-04-19T11:39:01.605Z,502.00
2023-04-19T11:40:02.803Z,502.00
2023-04-19T11:41:01.698Z,496.00
2023-04-19T11:42:01.993Z,499.00
2023-04-19T11:43:01.717Z,505.00
2023-04-19T11:44:01.645Z,491.00
2023-04-19T11:45:01.654Z,509.00
2023-04-19T11:46:01.683Z,504.00
2023-04-19T11:47:08.574Z,501.00
2023-04-19T11:48:01.750Z,494.00
2023-04-19T11:49:01.726Z,507.00
2023-04-19T11:50:01.740Z,501.00
2023-04-19T11:51:01.755Z,504.00
2023-04-19T11:52:05.302Z,503.00
2023-04-19T11:53:01.755Z,501.00
2023-04-19T11:54:01.824Z,481.00
2023-04-19T11:55:01.729Z,500.00
2023-04-19T11:56:02.033Z,502.00
2023-04-19T11:57:01.701Z,499.00
2023-04-19T11:58:01.717Z,501.00
2023-04-19T11:59:02.075Z,502.00
2023-04-19T12:00:01.789Z,507.00
2023-04-19T12:01:01.714Z,508.00
2023-04-19T12:02:02.129Z,505.00
2023-04-19T12:03:02.147Z,503.00
2023-04-19T12:04:01.830Z,497.00
2023-04-19T12:05:01.984Z,496.00
2023-04-19T12:06:02.223Z,498.00
2023-04-19T12:07:01.881Z,495.00
2023-04-19T12:08:01.913Z,497.00
2023-04-19T12:09:01.934Z,489.00
2023-04-19T12:10:02.067Z,488.00
2023-04-19T12:11:02.567Z,492.00
2023-04-19T12:12:02.084Z,491.00
2023-04-19T12:13:02.112Z,487.00
2023-04-19T12:14:02.146Z,490.00
2023-04-19T12:15:02.275Z,491.00
2023-04-19T12:16:02.279Z,494.00
2023-04-19T12:17:02.400Z,495.00
2023-04-19T12:18:02.516Z,493.00
2023-04-19T12:19:02.397Z,492.00
2023-04-19T12:20:02.389Z,478.00
2023-04-19T12:21:02.422Z,489.00
2023-04-19T12:22:02.444Z,494.00
2023-04-19T12:23:02.454Z,491.00
2023-04-19T12:24:02.495Z,493.00
2023-04-19T12:25:02.471Z,488.00
2023-04-19T12:26:02.569Z,486.00
2023-04-19T12:27:02.534Z,487.00
2023-04-19T12:28:02.572Z,482.00
2023-04-19T12:29:02.578Z,488.00
2023-04-19T12:30:02.578Z,490.00
2023-04-19T12:31:02.618Z,491.00
2023-04-19T12:32:02.622Z,489.00
2023-04-19T12:33:02.651Z,487.00
2023-04-19T12:34:03.037Z,493.00
2023-04-19T12:35:02.705Z,495.00
2023-04-19T12:36:02.708Z,493.00
2023-04-19T12:37:02.716Z,501.00
2023-04-19T12:38:02.772Z,499.00
2023-04-19T12:39:02.796Z,505.00
2023-04-19T12:40:02.876Z,496.00
2023-04-19T12:41:02.908Z,499.00
2023-04-19T12:42:03.001Z,502.00
2023-04-19T12:43:02.987Z,491.00
2023-04-19T12:44:03.106Z,525.00
2023-04-19T12:45:03.062Z,501.00
2023-04-19T12:46:03.215Z,500.00
2023-04-19T12:47:03.231Z,504.00
2023-04-19T12:48:03.432Z,517.00
2023-04-19T12:49:03.429Z,480.00
2023-04-19T12:50:03.458Z,497.00
2023-04-19T12:51:03.489Z,495.00
2023-04-19T12:52:03.570Z,504.00
2023-04-19T12:53:03.542Z,507.00
2023-04-19T12:54:03.593Z,491.00
2023-04-19T12:55:03.643Z,516.00
2023-04-19T12:56:03.720Z,508.00
2023-04-19T12:57:04.144Z,507.00
2023-04-19T12:58:03.919Z,494.00
2023-04-19T12:59:03.998Z,500.00
2023-04-19T13:00:04.014Z,509.00
2023-04-19T13:01:04.100Z,506.00
2023-04-19T13:02:04.686Z,503.00
2023-04-19T13:03:04.408Z,508.00
2023-04-19T13:04:04.432Z,496.00
2023-04-19T13:05:04.353Z,505.00
2023-04-19T13:06:04.434Z,504.00
2023-04-19T13:07:04.824Z,500.00
2023-04-19T13:08:04.564Z,474.00
2023-04-19T13:10:03.609Z,513.00
2023-04-19T13:11:04.613Z,502.00
2023-04-19T13:12:04.617Z,503.00
2023-04-19T13:13:04.616Z,500.00
2023-04-19T13:14:04.635Z,501.00
2023-04-19T13:15:05.144Z,502.00
2023-04-19T13:16:04.616Z,500.00
2023-04-19T13:17:04.583Z,516.00
2023-04-19T13:18:04.599Z,502.00
2023-04-19T13:19:04.556Z,505.00
2023-04-19T13:20:04.609Z,503.00
2023-04-19T13:21:05.543Z,505.00
2023-04-19T13:22:04.530Z,500.00
2023-04-19T13:23:04.515Z,511.00
2023-04-19T13:24:04.508Z,515.00
2023-04-19T13:25:04.497Z,510.00
2023-04-19T13:26:04.507Z,515.00
2023-04-19T13:27:06.700Z,511.00
2023-04-19T13:28:04.534Z,505.00
2023-04-19T13:29:04.546Z,502.00
2023-04-19T13:30:04.578Z,505.00
2023-04-19T13:31:04.620Z,509.00
2023-04-19T13:32:04.585Z,502.00
2023-04-19T13:33:06.652Z,502.00
2023-04-19T13:34:04.623Z,499.00
2023-04-19T13:35:04.620Z,489.00
2023-04-19T13:36:04.680Z,503.00
2023-04-19T13:37:04.635Z,510.00
2023-04-19T13:38:04.635Z,511.00
2023-04-19T13:39:06.879Z,512.00
2023-04-19T13:40:17.484Z,515.00
2023-04-19T13:41:04.663Z,514.00
2023-04-19T13:42:04.674Z,507.00
2023-04-19T13:43:04.689Z,507.00
2023-04-19T13:44:04.680Z,509.00
2023-04-19T13:45:04.679Z,507.00
2023-04-19T13:46:04.730Z,508.00
2023-04-19T13:47:04.743Z,497.00
2023-04-19T13:48:04.774Z,507.00
2023-04-19T13:49:04.722Z,508.00
2023-04-19T13:50:04.764Z,510.00
2023-04-19T13:51:04.753Z,505.00
2023-04-19T13:52:04.744Z,504.00
2023-04-19T13:53:04.786Z,500.00
2023-04-19T13:54:04.744Z,505.00
2023-04-19T13:55:04.752Z,500.00
2023-04-19T13:56:05.058Z,502.00
2023-04-19T13:57:04.784Z,482.00
2023-04-19T13:58:04.803Z,492.00
2023-04-19T13:59:04.797Z,519.00
2023-04-19T14:00:04.873Z,519.00
2023-04-19T14:01:04.871Z,517.00
2023-04-19T14:02:05.152Z,527.00
2023-04-19T14:03:04.909Z,520.00
2023-04-19T14:04:05.106Z,523.00
2023-04-19T14:05:04.897Z,506.00
2023-04-19T14:06:04.926Z,511.00
2023-04-19T14:07:04.950Z,502.00
2023-04-19T14:08:04.994Z,511.00
2023-04-19T14:09:04.992Z,511.00
2023-04-19T14:10:05.012Z,513.00
2023-04-19T14:11:05.160Z,504.00
2023-04-19T14:12:05.061Z,511.00
2023-04-19T14:13:05.105Z,501.00
2023-04-19T14:14:05.040Z,503.00
2023-04-19T14:15:05.065Z,486.00
2023-04-19T14:16:05.162Z,507.00
2023-04-19T14:17:05.779Z,505.00
2023-04-19T14:18:05.198Z,504.00
2023-04-19T14:19:05.158Z,506.00
2023-04-19T14:20:07.009Z,501.00
2023-04-19T14:21:05.179Z,509.00
2023-04-19T14:22:05.197Z,506.00
2023-04-19T14:23:05.214Z,503.00
2023-04-19T14:24:05.211Z,511.00
2023-04-19T14:25:05.221Z,513.00
2023-04-19T14:26:05.215Z,513.00
2023-04-19T14:27:10.886Z,513.00
2023-04-19T14:28:05.226Z,514.00
2023-04-19T14:29:05.217Z,507.00
2023-04-19T14:30:05.339Z,508.00
2023-04-19T14:31:05.235Z,512.00
2023-04-19T14:32:23.590Z,488.00
2023-04-19T14:33:05.312Z,511.00
2023-04-19T14:34:05.326Z,510.00
2023-04-19T14:35:05.866Z,505.00
2023-04-19T14:36:05.264Z,511.00
2023-04-19T14:37:05.561Z,508.00
2023-04-19T14:38:05.308Z,506.00
2023-04-19T14:39:05.340Z,505.00
2023-04-19T14:40:05.343Z,496.00
2023-04-19T14:41:05.330Z,501.00
2023-04-19T14:42:05.392Z,500.00
2023-04-19T14:43:05.363Z,504.00
2023-04-19T14:44:05.387Z,507.00
2023-04-19T14:45:05.393Z,507.00
2023-04-19T14:46:05.448Z,509.00
2023-04-19T14:47:05.428Z,512.00
2023-04-19T14:48:05.482Z,512.00
2023-04-19T14:49:05.452Z,511.00
2023-04-19T14:50:05.493Z,506.00
2023-04-19T14:51:05.465Z,506.00
2023-04-19T14:52:05.515Z,506.00
2023-04-19T14:53:05.486Z,506.00
2023-04-19T14:54:05.517Z,500.00
2023-04-19T14:55:05.521Z,505.00
2023-04-19T14:56:05.531Z,505.00
2023-04-19T14:57:05.537Z,508.00
2023-04-19T14:58:05.546Z,503.00
2023-04-19T14:59:05.565Z,508.00
2023-04-19T15:00:05.583Z,499.00
2023-04-19T15:01:05.588Z,491.00